Flight Track Log - Related Links

Times and Time Zones

All times are in EDT time to prevent confusion due to time zone crossing. See the SWA709 flight status page for this flight to view local times or setup timezone preferences in your user account.

Time Position Orientation Groundspeed Altitude Reporting Facility
EDT Latitude Longitude Course Direction KTS MPH feet Rate Location/Type
Thu 10:46:26 AM 36.0722 -115.2306 267° West 213 245 4,900  Level Los Angeles Center
Thu 10:47:16 AM 36.0369 -115.2700 222° Southwest 247 284 6,700 2,216 Climbing Los Angeles Center
Thu 10:48:17 AM 35.9653 -115.3094 204° Southwest 274 315 9,000 3,171 Climbing Los Angeles Center
Thu 10:49:19 AM 35.9058 -115.3803 224° Southwest 290 334 13,200 3,290 Climbing Los Angeles Center
Thu 10:50:21 AM 35.8864 -115.4778 256° West 300 345 15,800 2,661 Climbing Los Angeles Center
Thu 10:51:00 AM 36.0809 -115.1645 275° West  Level FlightAware Approximate
Thu 10:51:23 AM 35.8903 -115.6158 272° West 356 410 18,700  Level Los Angeles Center
Thu 10:52:24 AM 35.8917 -115.7506 271° West 391 450 21,400 2,585 Climbing Los Angeles Center
Thu 10:53:26 AM 35.8958 -115.8967 272° West 408 470 24,000 2,274 Climbing Los Angeles Center
Thu 10:54:28 AM 35.9303 -116.0086 291° West 415 478 26,100 2,371 Climbing Los Angeles Center
Thu 10:55:30 AM 36.0256 -116.1189 317° Northwest 417 480 28,900 2,613 Climbing Los Angeles Center
Thu 10:56:32 AM 36.1142 -116.2206 317° Northwest 411 473 31,500 1,512 Climbing Los Angeles Center
Thu 10:57:33 AM 36.1958 -116.3158 317° Northwest 407 468 32,000 244 Climbing Los Angeles Center
Thu 10:58:35 AM 36.2764 -116.4117 316° Northwest 404 465 32,000  Level Los Angeles Center
Thu 10:59:37 AM 36.3156 -116.5428 290° West 411 473 32,000  Level Los Angeles Center
Thu 11:00:39 AM 36.3494 -116.6742 288° West 405 466 32,000  Level Los Angeles Center
Thu 11:01:41 AM 36.3892 -116.8314 287° West 401 461 32,000  Level Los Angeles Center
Thu 11:02:42 AM 36.4231 -116.9644 288° West 405 466 32,000  Level Los Angeles Center
Thu 11:03:44 AM 36.4561 -117.0964 287° West 404 465 32,000  Level Los Angeles Center
Thu 11:04:46 AM 36.4892 -117.2306 287° West 407 468 32,000  Level Los Angeles Center
Thu 11:05:48 AM 36.5150 -117.3375 287° West 407 468 32,000  Level Los Angeles Center
Thu 11:06:50 AM 36.5547 -117.4981 287° West 407 468 32,000  Level Los Angeles Center
Thu 11:07:52 AM 36.5939 -117.6592 287° West 407 468 32,000  Level Los Angeles Center
Thu 11:09:06 AM 36.6267 -117.7944 287° West 408 470 32,000  Level Los Angeles Center
Thu 11:10:08 AM 36.6667 -117.9578 287° West 410 472 32,000  Level Los Angeles Center
Thu 11:11:10 AM 36.6989 -118.0950 286° West 412 474 32,000  Level Los Angeles Center
Thu 11:12:12 AM 36.7314 -118.2342 286° West 415 478 32,000  Level Los Angeles Center
Thu 11:13:14 AM 36.7636 -118.3694 287° West 412 474 32,000  Level Los Angeles Center
Thu 11:13:46 AM 36.7847 -118.4603 286° West 414 476 32,000  Level Oakland Center
Thu 11:14:47 AM 36.8164 -118.5997 286° West 410 472 32,000  Level Oakland Center
Thu 11:15:48 AM 36.8492 -118.7378 287° West 414 476 32,000  Level Oakland Center
Thu 11:16:49 AM 36.8825 -118.8797 286° West 422 486 32,000  Level Oakland Center
Thu 11:17:50 AM 36.9139 -119.0169 286° West 415 478 32,000  Level Oakland Center
Thu 11:18:52 AM 36.9447 -119.1531 286° West 412 474 32,000  Level Oakland Center
Thu 11:19:53 AM 36.9750 -119.2903 285° West 415 478 32,000 -541 Level Oakland Center
Thu 11:20:54 AM 37.0117 -119.4556 286° West 420 483 30,900 -1,033 Descending Oakland Center
Thu 11:21:55 AM 37.0417 -119.5897 286° West 401 461 29,900 -1,230 Descending Oakland Center
Thu 11:22:56 AM 37.0703 -119.7211 285° West 394 453 28,400 -1,721 Descending Oakland Center
Thu 11:23:57 AM 37.0972 -119.8514 285° West 375 432 26,400 -1,902 Descending Oakland Center
Thu 11:24:59 AM 37.1250 -119.9764 286° West 372 428 24,500 -1,854 Descending Oakland Center
Thu 11:26:00 AM 37.1508 -120.0975 285° West 360 414 22,600 -1,869 Descending Oakland Center
Thu 11:27:01 AM 37.1772 -120.2175 285° West 358 412 20,700 -1,820 Descending Oakland Center
Thu 11:28:02 AM 37.2017 -120.3314 285° West 339 390 18,900 -1,868 Descending Oakland Center
Thu 11:28:47 AM 37.2167 -120.4167 282° West 340 391 17,400 -1,657 Descending Northern Cal TRACON
Thu 11:29:47 AM 37.1833 -120.5333 250° West 370 426 16,000 -1,150 Descending Northern Cal TRACON
Thu 11:30:47 AM 37.1667 -120.6333 258° West 320 368 15,100 -947 Descending Northern Cal TRACON
Thu 11:31:41 AM 37.1500 -120.7333 258° West 319 367 14,200 -1,183 Descending Northern Cal TRACON
Thu 11:33:09 AM 37.1231 -120.8908 258° West 290 334 12,300 -1,329 Descending Oakland Center
Thu 11:34:10 AM 37.1289 -121.0058 274° West 320 368 10,900 -1,082 Descending Oakland Center
Thu 11:35:11 AM 37.1350 -121.1122 274° West 311 358 10,100 -439 Descending Oakland Center
Thu 11:36:13 AM 37.1406 -121.2189 274° West 307 353 10,000 -49 Descending Oakland Center
Thu 11:37:14 AM 37.1194 -121.3081 253° West 289 333 10,000 -689 Level Oakland Center
Thu 11:38:15 AM 37.0717 -121.3847 232° Southwest 279 321 8,600 -1,024 Descending Oakland Center
Thu 11:39:17 AM 37.0222 -121.4614 231° Southwest 280 322 7,900 -488 Descending Oakland Center
Thu 11:40:18 AM 36.9903 -121.5336 241° Southwest 263 303 7,600 -639 Descending Oakland Center
Thu 11:41:19 AM 37.0372 -121.5856 319° Northwest 237 273 6,600 -878 Descending Oakland Center
Thu 11:42:21 AM 37.0869 -121.6378 320° Northwest 234 269 5,800 -726 Descending Oakland Center
Thu 11:43:23 AM 37.1500 -121.7000 322° Northwest 225 259 5,100 -732 Descending Northern Cal TRACON
Thu 11:44:24 AM 37.1922 -121.7439 320° Northwest 221 254 4,300 -984 Descending Oakland Center
Thu 11:45:25 AM 37.2372 -121.7942 318° Northwest 217 250 3,100 -1,033 Descending Oakland Center
Thu 11:46:26 AM 37.2797 -121.8392 320° Northwest 206 237 2,200 -927 Descending Oakland Center
Thu 11:47:28 AM 37.3161 -121.8789 319° Northwest 190 219 1,200 -927 Descending Oakland Center
Thu 11:48:29 AM 37.3467 -121.9117 320° Northwest 165 190 300 -885 Descending Oakland Center
Thu 11:50:00 AM 37.3500 -121.9167 North  Level FlightAware Approximate
Thu 11:57:00 AM 37.3627 -121.9291 North  Level Estimated

Login

Don't have an account? Register now (free) for customized features, flight alerts, and more!